Rio Cuarto, Argentina
Current Conditions -  °F | °C
As of 2:00 PM on Sunday 21 Dec 2014 (Local Time) from SAOC Reporting Station
Scattered Clouds Scattered Clouds  
Wind Chill: 64°   Ceiling: Unl
Heat Index: 64°   Visibility: 6mi
Dew Point: 30°   Wind: 17mph
Humidity: 28%   Direction: 140°SE
Pressure: 29.91"   Gusts: NA
Location:  33.13°S, 64.35°W
Report Text: SAOC 211700Z 14015KT 9999 FEW025 SCT10018/M01 Q1013
Loading
Personal Weather Stations






























Interactive Weather Map New forecast layout! Learn more

10-Day Weather Forecast

Advertisements
Track Severe Weather on mobile